Time;durP1;ratioP1;P1;durP2;ratioP2;P2;SDS_P1;SDS_P2;PMS_P1;PMS_P2;Temp;Humidity;BMP_temperature;BMP_pressure;BME280_temperature;BME280_humidity;BME280_pressure;Samples;Min_cycle;Max_cycle;Signal;HPM_P1;HPM_P2
2022/10/29 00:00:22;;;;;;;17.25;3.80;;;;;;;;;;5093377;28;20051;-69
2022/10/29 00:02:48;;;;;;;22.48;4.47;;;;;;;;;;5111662;28;20050;-68
2022/10/29 00:05:14;;;;;;;18.45;4.22;;;;;;;;;;5107752;28;20032;-69
2022/10/29 00:07:40;;;;;;;18.73;4.28;;;;;;;;;;5110385;28;20118;-69
2022/10/29 00:10:06;;;;;;;17.75;4.25;;;;;;;;;;5108342;28;20139;-69
2022/10/29 00:12:32;;;;;;;23.20;4.65;;;;;;;;;;5112123;28;20040;-69
2022/10/29 00:14:58;;;;;;;17.08;4.38;;;;;;;;;;5108534;28;20122;-68
2022/10/29 00:17:24;;;;;;;20.65;4.55;;;;;;;;;;5105021;28;20186;-68
2022/10/29 00:19:50;;;;;;;22.42;4.30;;;;;;;;;;5105051;28;20070;-68
2022/10/29 00:22:16;;;;;;;19.52;5.05;;;;;;;;;;5104932;28;20489;-69
2022/10/29 00:24:42;;;;;;;16.95;4.32;;;;;;;;;;5102799;28;20056;-69
2022/10/29 00:27:09;;;;;;;20.13;4.63;;;;;;;;;;5105201;28;20047;-69
2022/10/29 00:29:35;;;;;;;17.92;4.13;;;;;;;;;;5103826;28;20066;-69
2022/10/29 00:32:01;;;;;;;21.73;4.38;;;;;;;;;;5104825;28;20071;-69
2022/10/29 00:34:27;;;;;;;20.10;5.00;;;;;;;;;;5104756;28;20043;-69
2022/10/29 00:36:53;;;;;;;21.13;4.80;;;;;;;;;;5103573;28;20047;-69
2022/10/29 00:39:19;;;;;;;22.88;4.82;;;;;;;;;;5085039;28;20040;-68
2022/10/29 00:41:45;;;;;;;18.02;4.57;;;;;;;;;;5103535;28;20032;-69
2022/10/29 00:44:14;;;;;;;19.27;4.45;;;;;;;;;;5104016;28;20067;-68
2022/10/29 00:46:41;;;;;;;21.05;4.93;;;;;;;;;;5112847;28;20080;-69
2022/10/29 00:49:07;;;;;;;20.25;5.03;;;;;;;;;;5111538;28;20463;-68
2022/10/29 00:51:34;;;;;;;20.30;4.43;;;;;;;;;;5111466;28;20093;-69
2022/10/29 00:54:03;;;;;;;18.05;4.68;;;;;;;;;;5110589;28;20482;-69
2022/10/29 00:56:31;;;;;;;17.08;4.70;;;;;;;;;;5112304;28;20477;-68
2022/10/29 00:58:57;;;;;;;19.05;4.35;;;;;;;;;;5110795;28;20052;-69
2022/10/29 01:01:23;;;;;;;24.25;4.82;;;;;;;;;;5090689;28;20051;-69
2022/10/29 01:03:51;;;;;;;18.17;4.30;;;;;;;;;;5111455;28;20035;-69
2022/10/29 01:06:17;;;;;;;17.30;4.50;;;;;;;;;;5108440;28;20044;-69
2022/10/29 01:08:43;;;;;;;20.98;5.32;;;;;;;;;;5092951;28;20501;-69
2022/10/29 01:11:23;;;;;;;19.33;4.70;;;;;;;;;;5109463;28;20050;-69
2022/10/29 01:13:49;;;;;;;20.15;5.50;;;;;;;;;;5109019;28;20044;-68
2022/10/29 01:16:24;;;;;;;20.95;5.10;;;;;;;;;;5110299;28;20074;-69
2022/10/29 01:19:08;;;;;;;19.55;4.78;;;;;;;;;;5110339;28;20050;-69
2022/10/29 01:21:41;;;;;;;19.85;5.28;;;;;;;;;;5112928;28;20098;-69
2022/10/29 01:24:10;;;;;;;18.40;5.25;;;;;;;;;;5092169;28;20051;-69
2022/10/29 01:26:52;;;;;;;15.05;4.65;;;;;;;;;;5110735;28;20069;-69
2022/10/29 01:29:37;;;;;;;18.40;4.70;;;;;;;;;;5108883;28;20040;-70
2022/10/29 01:32:06;;;;;;;13.95;5.03;;;;;;;;;;5113107;28;20047;-70
2022/10/29 01:34:51;;;;;;;19.00;4.93;;;;;;;;;;5109719;28;20489;-69
2022/10/29 01:37:29;;;;;;;15.10;4.50;;;;;;;;;;5111084;28;20027;-70
2022/10/29 01:39:58;;;;;;;15.32;4.80;;;;;;;;;;5090473;28;20062;-70
2022/10/29 01:42:31;;;;;;;17.88;5.00;;;;;;;;;;5112603;28;20040;-69
2022/10/29 01:45:13;;;;;;;17.23;4.93;;;;;;;;;;5109487;28;20093;-70
2022/10/29 01:47:39;;;;;;;;;;;;;;;;;;5087623;28;20048;-68
2022/10/29 01:50:07;;;;;;;15.45;4.85;;;;;;;;;;5109370;28;19958;-69
2022/10/29 01:52:34;;;;;;;15.10;5.00;;;;;;;;;;5112189;28;20104;-69
2022/10/29 01:55:01;;;;;;;16.83;5.63;;;;;;;;;;5108974;28;20508;-68
2022/10/29 01:57:37;;;;;;;13.30;6.10;;;;;;;;;;5110964;28;20500;-69
2022/10/29 02:00:08;;;;;;;14.65;5.43;;;;;;;;;;5110135;28;20052;-69
2022/10/29 02:02:34;;;;;;;13.80;4.93;;;;;;;;;;5110863;28;20074;-69
2022/10/29 02:05:02;;;;;;;23.55;5.40;;;;;;;;;;5106868;28;20481;-69
2022/10/29 02:07:28;;;;;;;28.25;5.63;;;;;;;;;;5109653;28;20079;-69
2022/10/29 02:10:06;;;;;;;13.30;4.97;;;;;;;;;;5108133;28;20067;-69
2022/10/29 02:12:42;;;;;;;15.10;5.28;;;;;;;;;;5107470;28;20089;-69
2022/10/29 02:15:10;;;;;;;10.43;4.65;;;;;;;;;;5105084;28;20108;-69
2022/10/29 02:17:36;;;;;;;16.55;5.57;;;;;;;;;;5109001;28;20051;-69
2022/10/29 02:20:07;;;;;;;10.23;4.90;;;;;;;;;;5110828;28;20043;-69
2022/10/29 02:22:33;;;;;;;10.60;5.20;;;;;;;;;;5103235;28;20539;-69
2022/10/29 02:24:59;;;;;;;15.48;5.95;;;;;;;;;;5072890;28;20489;-68
2022/10/29 02:27:25;;;;;;;15.00;5.03;;;;;;;;;;5110451;28;20048;-69
2022/10/29 02:29:51;;;;;;;15.90;5.53;;;;;;;;;;5110059;28;20092;-69
2022/10/29 02:32:17;;;;;;;23.92;6.90;;;;;;;;;;5111189;28;20043;-69
2022/10/29 02:34:43;;;;;;;19.60;5.97;;;;;;;;;;5109349;28;20039;-69
2022/10/29 02:37:09;;;;;;;28.73;5.75;;;;;;;;;;5111044;28;20047;-69
2022/10/29 02:39:35;;;;;;;19.02;5.32;;;;;;;;;;5108344;28;20044;-69
2022/10/29 02:42:01;;;;;;;27.30;5.57;;;;;;;;;;5107131;28;20048;-69
2022/10/29 02:44:27;;;;;;;24.05;5.22;;;;;;;;;;5109852;28;20059;-69
2022/10/29 02:46:53;;;;;;;58.78;5.90;;;;;;;;;;5091430;28;20035;-69
2022/10/29 02:49:19;;;;;;;37.78;5.32;;;;;;;;;;5109242;28;20039;-69
2022/10/29 02:51:45;;;;;;;76.85;6.00;;;;;;;;;;5108214;28;20046;-68
2022/10/29 02:54:11;;;;;;;220.85;8.05;;;;;;;;;;5110507;28;20439;-69
2022/10/29 02:56:37;;;;;;;171.73;6.97;;;;;;;;;;5109015;28;20126;-69
2022/10/29 02:59:03;;;;;;;183.88;7.50;;;;;;;;;;5109368;28;20051;-69
2022/10/29 03:01:29;;;;;;;142.05;7.13;;;;;;;;;;5105380;28;20047;-69
2022/10/29 03:03:55;;;;;;;70.30;6.28;;;;;;;;;;5108611;28;20039;-69
2022/10/29 03:06:21;;;;;;;72.72;5.82;;;;;;;;;;5107805;28;20043;-69
2022/10/29 03:08:48;;;;;;;51.15;5.18;;;;;;;;;;5110353;28;20047;-68
2022/10/29 03:11:14;;;;;;;55.78;4.97;;;;;;;;;;5109488;28;20508;-69
2022/10/29 03:13:40;;;;;;;17.52;4.93;;;;;;;;;;5108206;28;20051;-69
2022/10/29 03:16:07;;;;;;;21.67;5.10;;;;;;;;;;5108216;28;20040;-69
2022/10/29 03:18:33;;;;;;;10.30;4.78;;;;;;;;;;5109556;28;20036;-69
2022/10/29 03:20:59;;;;;;;19.85;5.10;;;;;;;;;;5110545;28;20039;-69
2022/10/29 03:23:25;;;;;;;21.38;4.95;;;;;;;;;;5112256;28;20044;-69
2022/10/29 03:25:53;;;;;;;73.75;5.68;;;;;;;;;;5111703;28;20143;-69
2022/10/29 03:28:19;;;;;;;93.93;6.97;;;;;;;;;;5113016;28;20490;-69
2022/10/29 03:30:46;;;;;;;81.07;7.03;;;;;;;;;;5109132;28;20401;-69
2022/10/29 03:33:12;;;;;;;62.70;6.60;;;;;;;;;;5113144;28;20121;-70
2022/10/29 03:35:38;;;;;;;133.68;7.32;;;;;;;;;;5110970;28;20050;-70
2022/10/29 03:38:04;;;;;;;84.50;6.30;;;;;;;;;;5111190;28;20044;-70
2022/10/29 03:40:30;;;;;;;71.40;7.10;;;;;;;;;;5110508;28;20046;-69
2022/10/29 03:42:56;;;;;;;74.50;7.13;;;;;;;;;;5111239;28;20529;-70
2022/10/29 03:45:22;;;;;;;79.03;6.65;;;;;;;;;;5109350;28;20047;-70
2022/10/29 03:47:48;;;;;;;50.28;6.28;;;;;;;;;;5107865;28;20040;-70
2022/10/29 03:50:14;;;;;;;22.33;6.05;;;;;;;;;;5111518;28;20047;-70
2022/10/29 03:52:40;;;;;;;72.25;7.25;;;;;;;;;;5112085;28;20044;-70
2022/10/29 03:55:06;;;;;;;45.70;6.57;;;;;;;;;;5108728;28;20520;-70
2022/10/29 03:57:32;;;;;;;87.57;7.57;;;;;;;;;;5092476;28;20050;-70
2022/10/29 04:00:03;;;;;;;87.10;7.47;;;;;;;;;;5111071;28;20052;-70
2022/10/29 04:02:29;;;;;;;88.32;5.80;;;;;;;;;;5112005;28;20039;-70
2022/10/29 04:04:55;;;;;;;94.90;6.60;;;;;;;;;;5108310;28;20035;-70
2022/10/29 04:07:22;;;;;;;74.57;6.15;;;;;;;;;;5091438;28;20093;-69
2022/10/29 04:09:48;;;;;;;119.25;8.20;;;;;;;;;;5110609;28;20036;-70
2022/10/29 04:12:14;;;;;;;79.03;7.60;;;;;;;;;;5109164;28;20072;-70
2022/10/29 04:14:41;;;;;;;75.65;7.75;;;;;;;;;;5091962;28;20051;-70
2022/10/29 04:17:08;;;;;;;77.60;7.40;;;;;;;;;;5109063;28;20424;-70
2022/10/29 04:19:34;;;;;;;75.78;8.15;;;;;;;;;;5106077;28;20094;-70
2022/10/29 04:22:00;;;;;;;58.78;7.88;;;;;;;;;;5105915;28;20059;-70
2022/10/29 04:24:26;;;;;;;62.60;8.13;;;;;;;;;;5111743;28;20066;-70
2022/10/29 04:26:52;;;;;;;37.33;7.55;;;;;;;;;;5104993;28;20156;-70
2022/10/29 04:29:18;;;;;;;49.92;7.97;;;;;;;;;;5108925;28;20044;-70
2022/10/29 04:31:44;;;;;;;41.55;7.95;;;;;;;;;;5112643;28;20478;-70
2022/10/29 04:34:10;;;;;;;52.38;8.68;;;;;;;;;;5109228;28;20393;-70
2022/10/29 04:36:36;;;;;;;74.75;9.35;;;;;;;;;;5111627;28;20089;-70
2022/10/29 04:39:02;;;;;;;50.22;8.25;;;;;;;;;;5111602;28;20097;-70
2022/10/29 04:41:29;;;;;;;25.27;8.45;;;;;;;;;;5111545;28;20122;-70
2022/10/29 04:43:55;;;;;;;25.65;8.10;;;;;;;;;;5115251;28;20081;-70
2022/10/29 04:46:21;;;;;;;20.27;7.22;;;;;;;;;;5114238;28;20051;-70
2022/10/29 04:48:47;;;;;;;12.38;8.50;;;;;;;;;;5111525;28;20043;-70
2022/10/29 04:51:23;;;;;;;13.38;8.63;;;;;;;;;;5113642;28;20035;-70
2022/10/29 04:53:49;;;;;;;12.40;8.07;;;;;;;;;;5114796;28;20193;-70
2022/10/29 04:56:15;;;;;;;16.50;9.95;;;;;;;;;;5094896;28;20058;-70
2022/10/29 04:58:41;;;;;;;11.20;8.70;;;;;;;;;;5114358;28;20048;-69
2022/10/29 05:01:07;;;;;;;11.13;9.10;;;;;;;;;;5113853;28;20126;-69
2022/10/29 05:03:33;;;;;;;11.70;9.30;;;;;;;;;;5113923;28;20047;-69
2022/10/29 05:06:02;;;;;;;14.20;9.73;;;;;;;;;;5115017;28;20096;-69
2022/10/29 05:08:28;;;;;;;14.85;10.65;;;;;;;;;;5114714;28;20050;-70
2022/10/29 05:10:54;;;;;;;13.32;9.23;;;;;;;;;;5111696;28;20048;-69
2022/10/29 05:13:20;;;;;;;16.73;9.77;;;;;;;;;;5114376;28;20114;-69
2022/10/29 05:15:50;;;;;;;15.68;9.55;;;;;;;;;;5111959;28;20097;-69
2022/10/29 05:18:16;;;;;;;18.35;9.50;;;;;;;;;;5112896;28;20036;-69
2022/10/29 05:20:42;;;;;;;19.95;10.27;;;;;;;;;;5111199;28;20078;-69
2022/10/29 05:23:09;;;;;;;17.10;9.40;;;;;;;;;;5114415;28;20044;-69
2022/10/29 05:25:36;;;;;;;31.33;10.88;;;;;;;;;;5114425;28;20047;-69
2022/10/29 05:28:06;;;;;;;24.20;10.20;;;;;;;;;;5113810;28;20082;-69
2022/10/29 05:30:33;;;;;;;30.67;10.27;;;;;;;;;;5114006;28;20115;-70
2022/10/29 05:32:59;;;;;;;24.52;11.13;;;;;;;;;;5115878;28;20050;-69
2022/10/29 05:35:25;;;;;;;42.60;12.40;;;;;;;;;;5112850;28;20054;-69
2022/10/29 05:37:55;;;;;;;47.90;12.73;;;;;;;;;;5113524;28;20040;-69
2022/10/29 05:40:22;;;;;;;30.83;12.60;;;;;;;;;;5111227;28;20042;-70
2022/10/29 05:42:48;;;;;;;58.60;20.15;;;;;;;;;;5111933;28;20039;-69
2022/10/29 05:45:14;;;;;;;82.35;31.35;;;;;;;;;;5112319;28;20520;-69
2022/10/29 05:47:40;;;;;;;66.93;33.40;;;;;;;;;;5112197;28;20554;-69
2022/10/29 05:50:06;;;;;;;45.38;17.83;;;;;;;;;;5113273;28;20126;-69
2022/10/29 05:52:32;;;;;;;41.42;18.45;;;;;;;;;;5113613;28;20032;-70
2022/10/29 05:54:58;;;;;;;39.95;18.63;;;;;;;;;;5112637;28;20035;-69
2022/10/29 05:57:24;;;;;;;31.48;17.05;;;;;;;;;;5113427;28;20686;-69
2022/10/29 05:59:50;;;;;;;36.25;19.52;;;;;;;;;;5095740;28;20048;-70
2022/10/29 06:02:16;;;;;;;40.38;15.75;;;;;;;;;;5109857;28;20047;-70
2022/10/29 06:04:42;;;;;;;40.90;16.27;;;;;;;;;;5111226;28;20035;-70
2022/10/29 06:07:09;;;;;;;31.33;15.43;;;;;;;;;;5114444;28;20478;-69
2022/10/29 06:09:35;;;;;;;49.67;16.48;;;;;;;;;;5109717;28;20043;-70
2022/10/29 06:12:01;;;;;;;55.53;20.02;;;;;;;;;;5112474;28;20039;-69
2022/10/29 06:14:27;;;;;;;100.18;35.22;;;;;;;;;;5093612;28;20128;-70
2022/10/29 06:16:53;;;;;;;92.95;36.58;;;;;;;;;;5111569;28;20051;-69
2022/10/29 06:19:19;;;;;;;76.47;31.55;;;;;;;;;;5113005;28;20036;-69
2022/10/29 06:21:45;;;;;;;65.03;22.70;;;;;;;;;;5112829;28;20047;-70
2022/10/29 06:24:12;;;;;;;72.22;31.20;;;;;;;;;;5107793;28;20686;-70
2022/10/29 06:26:38;;;;;;;57.70;24.08;;;;;;;;;;5108600;28;20130;-69
2022/10/29 06:29:04;;;;;;;49.00;23.17;;;;;;;;;;5114050;28;20047;-70
2022/10/29 06:31:30;;;;;;;48.97;22.80;;;;;;;;;;5095138;28;20078;-70
2022/10/29 06:33:56;;;;;;;35.63;18.92;;;;;;;;;;5110700;28;20092;-70
2022/10/29 06:36:23;;;;;;;40.58;19.58;;;;;;;;;;5107250;28;20085;-70
2022/10/29 06:38:49;;;;;;;32.78;17.48;;;;;;;;;;5110084;28;20044;-70
2022/10/29 06:41:15;;;;;;;28.10;17.90;;;;;;;;;;5112207;28;20055;-70
2022/10/29 06:43:41;;;;;;;23.27;15.02;;;;;;;;;;5113588;28;20066;-70
2022/10/29 06:46:07;;;;;;;31.73;17.70;;;;;;;;;;5094234;28;20044;-70
2022/10/29 06:48:33;;;;;;;30.75;16.92;;;;;;;;;;5112464;28;20051;-70
2022/10/29 06:50:59;;;;;;;26.65;16.55;;;;;;;;;;5113325;28;20036;-70
2022/10/29 06:53:26;;;;;;;30.15;16.73;;;;;;;;;;5113518;28;20128;-70
2022/10/29 06:55:52;;;;;;;29.98;16.20;;;;;;;;;;5113481;28;20040;-70
2022/10/29 06:58:19;;;;;;;36.75;17.55;;;;;;;;;;5112782;28;20094;-70
2022/10/29 07:00:46;;;;;;;29.58;17.08;;;;;;;;;;5113132;28;20109;-70
2022/10/29 07:03:12;;;;;;;40.42;19.88;;;;;;;;;;5094696;28;20043;-70
2022/10/29 07:05:38;;;;;;;47.65;20.35;;;;;;;;;;5110620;28;20044;-70
2022/10/29 07:08:05;;;;;;;28.92;16.90;;;;;;;;;;5101833;28;20040;-71
2022/10/29 07:10:31;;;;;;;26.67;13.30;;;;;;;;;;5109583;28;20494;-69
2022/10/29 07:12:58;;;;;;;64.53;44.03;;;;;;;;;;5111574;28;20088;-69
2022/10/29 07:15:24;;;;;;;64.28;42.17;;;;;;;;;;5112608;28;20054;-68
2022/10/29 07:17:56;;;;;;;56.50;38.40;;;;;;;;;;5113098;28;20055;-71
2022/10/29 07:20:22;;;;;;;48.63;24.52;;;;;;;;;;5093865;28;20039;-71
2022/10/29 07:22:48;;;;;;;41.97;21.88;;;;;;;;;;5112876;28;20040;-70
2022/10/29 07:25:14;;;;;;;35.38;19.73;;;;;;;;;;5105570;28;20071;-71
2022/10/29 07:27:40;;;;;;;28.90;19.85;;;;;;;;;;5109796;28;20412;-71
2022/10/29 07:30:06;;;;;;;36.13;21.85;;;;;;;;;;5113071;28;20043;-70
2022/10/29 07:32:32;;;;;;;37.63;21.65;;;;;;;;;;5112859;28;20055;-72
2022/10/29 07:34:59;;;;;;;32.03;19.00;;;;;;;;;;5109873;28;20039;-73
2022/10/29 07:37:25;;;;;;;42.80;23.27;;;;;;;;;;5093915;28;20035;-70
2022/10/29 07:39:51;;;;;;;38.50;21.35;;;;;;;;;;5112617;28;20044;-70
2022/10/29 07:42:17;;;;;;;38.95;20.80;;;;;;;;;;5112622;28;20087;-71
2022/10/29 07:44:43;;;;;;;36.20;21.27;;;;;;;;;;5112879;28;20122;-70
2022/10/29 07:47:09;;;;;;;36.95;21.63;;;;;;;;;;5111785;28;20105;-74
2022/10/29 07:49:35;;;;;;;42.85;23.98;;;;;;;;;;5111184;28;20136;-71
2022/10/29 07:52:01;;;;;;;44.55;23.55;;;;;;;;;;5093170;28;20093;-73
2022/10/29 07:54:28;;;;;;;45.72;22.85;;;;;;;;;;5111001;28;20050;-73
2022/10/29 07:56:54;;;;;;;43.25;23.67;;;;;;;;;;5109704;28;20115;-71
2022/10/29 07:59:20;;;;;;;41.90;23.70;;;;;;;;;;5112260;28;20110;-72
2022/10/29 08:01:46;;;;;;;35.55;22.83;;;;;;;;;;5112557;28;20094;-71
2022/10/29 08:04:12;;;;;;;41.47;23.33;;;;;;;;;;5109237;28;20055;-70
2022/10/29 08:06:38;;;;;;;37.08;22.73;;;;;;;;;;5111365;28;20055;-71
2022/10/29 08:09:05;;;;;;;39.17;23.17;;;;;;;;;;5112337;28;20058;-70
2022/10/29 08:11:31;;;;;;;40.72;27.17;;;;;;;;;;5110636;28;20036;-71
2022/10/29 08:13:58;;;;;;;31.08;21.08;;;;;;;;;;5096067;28;20072;-70
2022/10/29 08:16:24;;;;;;;41.30;30.92;;;;;;;;;;5091901;28;20126;-71
2022/10/29 08:18:50;;;;;;;36.20;25.95;;;;;;;;;;5106230;28;20039;-71
2022/10/29 08:21:16;;;;;;;35.35;28.05;;;;;;;;;;5115146;28;20040;-71
2022/10/29 08:23:43;;;;;;;44.95;27.30;;;;;;;;;;5113810;28;20055;-72
2022/10/29 08:26:09;;;;;;;36.30;25.35;;;;;;;;;;5106893;28;20043;-71
2022/10/29 08:28:35;;;;;;;37.05;24.40;;;;;;;;;;5097675;28;20046;-72
2022/10/29 08:31:01;;;;;;;40.45;25.55;;;;;;;;;;5111456;28;20043;-75
2022/10/29 08:33:27;;;;;;;37.97;25.10;;;;;;;;;;5113155;28;20096;-71
2022/10/29 08:35:53;;;;;;;35.78;23.58;;;;;;;;;;5097053;28;20047;-73
2022/10/29 08:38:22;;;;;;;37.88;23.17;;;;;;;;;;5114848;28;20051;-72
2022/10/29 08:40:51;;;;;;;101.93;83.85;;;;;;;;;;5115274;28;20039;-75
2022/10/29 08:43:32;;;;;;;49.75;32.47;;;;;;;;;;5116158;28;20382;-74
2022/10/29 08:45:58;;;;;;;58.38;36.15;;;;;;;;;;5097514;28;20118;-74
2022/10/29 08:48:35;;;;;;;44.22;29.75;;;;;;;;;;5095500;28;20043;-74
2022/10/29 08:51:16;;;;;;;45.90;26.08;;;;;;;;;;5113894;28;20101;-75
2022/10/29 08:53:45;;;;;;;43.83;26.85;;;;;;;;;;5115389;28;20050;-73
2022/10/29 08:56:32;;;;;;;42.28;26.27;;;;;;;;;;5113518;28;20039;-75
2022/10/29 08:59:11;;;;;;;46.22;31.40;;;;;;;;;;5101207;28;20575;-74
2022/10/29 09:01:37;;;;;;;42.70;30.30;;;;;;;;;;5116255;28;20052;-72
2022/10/29 09:04:10;;;;;;;42.85;26.50;;;;;;;;;;5112967;28;20043;-74
2022/10/29 09:06:47;;;;;;;43.78;30.20;;;;;;;;;;5095407;28;20111;-76
2022/10/29 09:09:32;;;;;;;54.22;30.05;;;;;;;;;;5102610;28;20047;-74
2022/10/29 09:11:58;;;;;;;55.72;24.63;;;;;;;;;;5113871;28;20124;-74
2022/10/29 09:14:27;;;;;;;38.08;25.27;;;;;;;;;;5112651;28;20449;-73
2022/10/29 09:16:59;;;;;;;43.45;31.15;;;;;;;;;;5114847;28;20493;-75
2022/10/29 09:19:40;;;;;;;43.10;23.65;;;;;;;;;;5109917;28;20039;-76
2022/10/29 09:22:06;;;;;;;43.50;21.73;;;;;;;;;;5113822;28;20043;-73
2022/10/29 09:24:38;;;;;;;59.60;22.70;;;;;;;;;;5113848;28;20052;-74
2022/10/29 09:27:17;;;;;;;43.45;24.08;;;;;;;;;;5112828;28;20093;-74
2022/10/29 09:29:49;;;;;;;37.70;24.88;;;;;;;;;;5114855;28;20469;-74
2022/10/29 09:32:15;;;;;;;36.85;23.48;;;;;;;;;;5115351;28;20040;-76
2022/10/29 09:34:49;;;;;;;44.40;22.05;;;;;;;;;;5097023;28;20051;-75
2022/10/29 09:37:29;;;;;;;46.00;21.67;;;;;;;;;;5115168;28;20397;-74
2022/10/29 09:39:56;;;;;;;43.72;22.58;;;;;;;;;;5114633;28;20048;-74
2022/10/29 09:42:26;;;;;;;35.70;20.58;;;;;;;;;;5085479;28;20101;-74
2022/10/29 09:45:01;;;;;;;40.13;20.48;;;;;;;;;;5105033;28;20071;-74
2022/10/29 09:47:48;;;;;;;46.75;26.20;;;;;;;;;;5115094;28;20115;-74
2022/10/29 09:50:34;;;;;;;45.08;23.40;;;;;;;;;;5114495;28;20062;-75
2022/10/29 09:53:01;;;;;;;31.75;20.02;;;;;;;;;;5078549;28;20036;-73
2022/10/29 09:55:38;;;;;;;36.53;20.98;;;;;;;;;;5109309;28;20160;-74
2022/10/29 09:58:05;;;;;;;35.58;19.25;;;;;;;;;;5107848;28;20039;-74
2022/10/29 10:00:32;;;;;;;36.20;18.90;;;;;;;;;;5105866;27;20047;-74
2022/10/29 10:03:10;;;;;;;30.95;20.65;;;;;;;;;;5110999;28;20132;-74
2022/10/29 10:05:55;;;;;;;36.65;19.52;;;;;;;;;;5110390;28;20435;-72
2022/10/29 10:08:21;;;;;;;31.40;18.55;;;;;;;;;;5113201;28;20387;-75
2022/10/29 10:10:54;;;;;;;49.72;32.70;;;;;;;;;;5113737;28;20044;-73
2022/10/29 10:13:22;;;;;;;53.15;35.80;;;;;;;;;;5095829;28;20083;-73
2022/10/29 10:15:53;;;;;;;197.65;174.38;;;;;;;;;;5075964;28;20096;-75
2022/10/29 10:18:19;;;;;;;135.25;116.90;;;;;;;;;;5113996;28;20122;-73
2022/10/29 10:20:48;;;;;;;49.83;38.13;;;;;;;;;;5112257;28;20083;-73
2022/10/29 10:23:20;;;;;;;35.67;22.55;;;;;;;;;;5093712;28;20055;-73
2022/10/29 10:25:46;;;;;;;31.88;20.58;;;;;;;;;;5111460;28;20417;-74
2022/10/29 10:28:26;;;;;;;33.33;21.02;;;;;;;;;;5113878;28;20051;-72
2022/10/29 10:31:04;;;;;;;33.88;19.67;;;;;;;;;;5092866;28;20039;-72
2022/10/29 10:33:31;;;;;;;30.52;22.23;;;;;;;;;;5107818;28;20043;-72
2022/10/29 10:36:01;;;;;;;35.38;21.52;;;;;;;;;;5111781;28;20043;-73
2022/10/29 10:38:28;;;;;;;29.83;19.17;;;;;;;;;;5091554;28;20518;-73
2022/10/29 10:41:00;;;;;;;27.55;17.35;;;;;;;;;;5113508;28;20105;-74
2022/10/29 10:43:26;;;;;;;29.35;18.70;;;;;;;;;;5108926;28;20570;-74
2022/10/29 10:45:59;;;;;;;31.30;18.92;;;;;;;;;;5112883;28;20139;-74
2022/10/29 10:48:27;;;;;;;27.38;17.50;;;;;;;;;;5111741;28;20122;-75
2022/10/29 10:51:09;;;;;;;23.85;13.85;;;;;;;;;;5112706;28;20482;-75
2022/10/29 10:53:39;;;;;;;28.35;16.92;;;;;;;;;;5112940;28;20485;-75
2022/10/29 10:56:06;;;;;;;24.67;14.80;;;;;;;;;;5093280;28;20044;-75
2022/10/29 10:58:39;;;;;;;31.40;17.70;;;;;;;;;;5093022;28;20051;-75
2022/10/29 11:01:18;;;;;;;30.55;18.38;;;;;;;;;;5109574;28;20048;-74
2022/10/29 11:03:49;;;;;;;25.42;15.82;;;;;;;;;;5108874;28;20043;-74
2022/10/29 11:06:22;;;;;;;33.78;21.10;;;;;;;;;;5094890;28;20052;-74
2022/10/29 11:09:06;;;;;;;26.52;17.55;;;;;;;;;;5106562;28;20505;-75
2022/10/29 11:11:54;;;;;;;33.67;14.10;;;;;;;;;;5103870;28;20046;-73
2022/10/29 11:14:29;;;;;;;35.08;14.68;;;;;;;;;;5108308;28;20432;-73
2022/10/29 11:16:57;;;;;;;47.42;14.65;;;;;;;;;;5109977;28;20087;-69
2022/10/29 11:19:40;;;;;;;36.92;16.85;;;;;;;;;;5111032;28;20070;-69
2022/10/29 11:22:17;;;;;;;33.22;17.50;;;;;;;;;;5110568;28;20444;-70
2022/10/29 11:24:55;;;;;;;37.22;17.48;;;;;;;;;;5111597;28;20031;-72
2022/10/29 11:27:33;;;;;;;31.45;15.15;;;;;;;;;;5100355;28;20451;-69
2022/10/29 11:30:05;;;;;;;108.40;18.33;;;;;;;;;;5111819;28;20043;-71
2022/10/29 11:32:52;;;;;;;63.10;15.55;;;;;;;;;;5111020;28;20122;-70
2022/10/29 11:35:37;;;;;;;35.40;15.65;;;;;;;;;;5108934;28;20461;-73
2022/10/29 11:38:03;;;;;;;29.10;15.18;;;;;;;;;;5108110;28;20039;-68
2022/10/29 11:40:37;;;;;;;28.13;15.13;;;;;;;;;;5109514;28;20498;-69
2022/10/29 11:43:04;;;;;;;33.80;15.77;;;;;;;;;;5109326;28;20048;-69
2022/10/29 11:45:44;;;;;;;31.52;15.50;;;;;;;;;;5108889;28;20044;-69
2022/10/29 11:48:16;;;;;;;31.10;15.32;;;;;;;;;;5112003;28;20168;-69
2022/10/29 11:50:49;;;;;;;32.05;14.98;;;;;;;;;;5112073;28;20051;-69
2022/10/29 11:53:24;;;;;;;30.75;16.10;;;;;;;;;;5111645;28;20039;-69
2022/10/29 11:55:56;;;;;;;29.35;15.55;;;;;;;;;;5112048;28;20047;-69
2022/10/29 11:58:22;;;;;;;29.75;15.48;;;;;;;;;;5111311;28;21033;-69
2022/10/29 12:01:08;;;;;;;30.25;15.65;;;;;;;;;;5107167;28;20070;-69
2022/10/29 12:03:50;;;;;;;30.42;16.23;;;;;;;;;;5111078;28;20047;-69
2022/10/29 12:06:32;;;;;;;31.02;16.65;;;;;;;;;;5092393;28;20571;-69
2022/10/29 12:08:58;;;;;;;29.58;16.60;;;;;;;;;;5100591;28;20502;-69
2022/10/29 12:11:42;;;;;;;31.65;17.05;;;;;;;;;;5108222;28;20177;-69
2022/10/29 12:14:32;;;;;;;31.67;17.00;;;;;;;;;;5088768;28;20439;-69
2022/10/29 12:17:15;;;;;;;31.42;16.33;;;;;;;;;;5109984;28;20035;-69
2022/10/29 12:19:54;;;;;;;31.98;16.27;;;;;;;;;;5104974;28;20402;-70
2022/10/29 12:22:28;;;;;;;34.17;16.50;;;;;;;;;;5110735;28;20044;-69
2022/10/29 12:25:03;;;;;;;41.17;17.50;;;;;;;;;;5106984;28;20066;-69
2022/10/29 12:27:45;;;;;;;30.92;17.63;;;;;;;;;;5106899;28;20397;-69
2022/10/29 12:30:13;;;;;;;30.23;17.48;;;;;;;;;;5109431;28;20486;-69
2022/10/29 12:32:58;;;;;;;31.55;17.45;;;;;;;;;;5110423;28;20039;-69
2022/10/29 12:35:43;;;;;;;30.80;18.23;;;;;;;;;;5108623;28;20043;-69
2022/10/29 12:38:34;;;;;;;38.78;17.77;;;;;;;;;;5103636;28;20123;-69
2022/10/29 12:41:05;;;;;;;32.85;17.35;;;;;;;;;;5108719;28;20047;-68
2022/10/29 12:43:33;;;;;;;30.48;18.17;;;;;;;;;;5109388;28;20460;-69
2022/10/29 12:46:08;;;;;;;33.28;17.80;;;;;;;;;;5111644;28;20128;-69
2022/10/29 12:48:42;;;;;;;34.10;18.30;;;;;;;;;;5110116;28;20047;-69
2022/10/29 12:51:16;;;;;;;34.65;17.35;;;;;;;;;;5092709;28;20500;-69
2022/10/29 12:53:55;;;;;;;36.42;19.15;;;;;;;;;;5106501;28;20048;-69
2022/10/29 12:56:22;;;;;;;31.50;18.65;;;;;;;;;;5094805;28;20070;-69
2022/10/29 12:58:49;;;;;;;34.92;18.15;;;;;;;;;;5111184;28;20515;-69
2022/10/29 13:01:27;;;;;;;33.08;19.02;;;;;;;;;;5111009;28;20058;-70
2022/10/29 13:03:53;;;;;;;35.35;20.05;;;;;;;;;;5114760;28;20046;-69
2022/10/29 13:06:38;;;;;;;34.53;19.80;;;;;;;;;;5113364;28;20396;-69
2022/10/29 13:09:23;;;;;;;32.53;19.30;;;;;;;;;;5109528;28;20134;-68
2022/10/29 13:11:50;;;;;;;32.80;19.13;;;;;;;;;;5115176;28;20044;-69
2022/10/29 13:14:31;;;;;;;40.95;20.10;;;;;;;;;;5112481;28;20078;-69
2022/10/29 13:16:58;;;;;;;35.47;19.27;;;;;;;;;;5113694;28;20036;-68
2022/10/29 13:19:24;;;;;;;33.95;18.48;;;;;;;;;;5102591;28;20044;-69
2022/10/29 13:21:56;;;;;;;34.25;18.88;;;;;;;;;;5113851;28;20035;-69
2022/10/29 13:24:22;;;;;;;29.23;17.50;;;;;;;;;;5114382;28;20443;-70
2022/10/29 13:26:54;;;;;;;33.03;19.20;;;;;;;;;;5115194;27;20115;-69
2022/10/29 13:29:39;;;;;;;31.80;18.52;;;;;;;;;;5114332;28;20043;-69
2022/10/29 13:32:05;;;;;;;35.65;18.42;;;;;;;;;;5114571;28;20422;-69
2022/10/29 13:34:50;;;;;;;32.75;18.17;;;;;;;;;;5114220;28;20071;-69
2022/10/29 13:37:35;;;;;;;33.17;17.75;;;;;;;;;;5093314;28;20039;-69
2022/10/29 13:40:20;;;;;;;31.33;18.35;;;;;;;;;;5114130;28;20051;-69
2022/10/29 13:42:47;;;;;;;30.88;17.63;;;;;;;;;;5104115;28;20047;-69
2022/10/29 13:45:13;;;;;;;34.88;17.88;;;;;;;;;;5114053;28;20401;-69
2022/10/29 13:47:40;;;;;;;29.55;17.33;;;;;;;;;;5111131;28;20036;-69
2022/10/29 13:50:06;;;;;;;35.85;17.20;;;;;;;;;;5114096;28;20136;-69
2022/10/29 13:52:36;;;;;;;30.40;16.25;;;;;;;;;;5113741;28;20374;-70
2022/10/29 13:55:05;;;;;;;30.70;16.67;;;;;;;;;;5093761;28;20100;-69
2022/10/29 13:57:31;;;;;;;31.20;16.10;;;;;;;;;;5112424;28;20076;-69
2022/10/29 14:00:01;;;;;;;29.23;16.15;;;;;;;;;;5114343;28;20090;-69
2022/10/29 14:02:38;;;;;;;24.90;15.60;;;;;;;;;;5095468;28;20048;-70
2022/10/29 14:05:19;;;;;;;28.00;15.18;;;;;;;;;;5114265;28;20056;-69
2022/10/29 14:07:45;;;;;;;27.15;16.77;;;;;;;;;;5112414;28;20036;-69
2022/10/29 14:10:19;;;;;;;28.05;16.15;;;;;;;;;;5113819;28;20101;-69
2022/10/29 14:12:46;;;;;;;23.10;15.05;;;;;;;;;;5113864;28;20035;-69
2022/10/29 14:15:13;;;;;;;28.35;15.93;;;;;;;;;;5112544;28;20039;-69
2022/10/29 14:17:40;;;;;;;25.77;15.05;;;;;;;;;;5109734;28;20044;-69
2022/10/29 14:20:19;;;;;;;27.33;15.80;;;;;;;;;;5113366;28;20039;-69
2022/10/29 14:22:45;;;;;;;27.67;15.60;;;;;;;;;;5113712;28;20607;-69
2022/10/29 14:25:40;;;;;;;27.05;14.98;;;;;;;;;;5113496;28;20126;-69
2022/10/29 14:28:12;;;;;;;26.20;14.95;;;;;;;;;;5090080;28;20536;-69
2022/10/29 14:30:38;;;;;;;27.83;15.02;;;;;;;;;;5108928;28;20046;-69
2022/10/29 14:33:36;;;;;;;31.98;15.75;;;;;;;;;;5113352;28;20036;-69
2022/10/29 14:36:13;;;;;;;27.80;14.68;;;;;;;;;;5056154;28;20047;-69